createdAt,value
2019-01-21T00:00:53.391Z,150.95
2019-01-21T00:03:33.636Z,147.40
2019-01-21T00:06:13.756Z,161.80
2019-01-21T00:08:53.933Z,158.32
2019-01-21T00:11:35.072Z,157.00
2019-01-21T00:14:15.500Z,164.60
2019-01-21T00:16:55.364Z,175.80
2019-01-21T00:19:35.522Z,151.50
2019-01-21T00:22:15.876Z,165.65
2019-01-21T00:24:56.077Z,188.72
2019-01-21T00:27:36.112Z,154.03
2019-01-21T00:30:16.678Z,155.87
2019-01-21T00:32:57.443Z,154.97
2019-01-21T00:35:37.390Z,158.30
2019-01-21T00:38:17.384Z,167.30
2019-01-21T00:40:57.517Z,149.65
2019-01-21T00:43:37.254Z,156.82
2019-01-21T00:46:17.488Z,158.87
2019-01-21T00:48:57.344Z,147.47
2019-01-21T00:51:37.067Z,149.80
2019-01-21T00:54:17.452Z,157.07
2019-01-21T00:56:56.965Z,153.90
2019-01-21T00:59:36.287Z,161.47
2019-01-21T01:02:16.522Z,158.68
2019-01-21T01:04:58.794Z,151.80
2019-01-21T01:07:38.620Z,150.62
2019-01-21T01:10:18.798Z,146.40
2019-01-21T01:12:58.055Z,148.13
2019-01-21T01:15:38.264Z,148.57
2019-01-21T01:18:18.151Z,150.68
2019-01-21T01:20:58.267Z,181.20
2019-01-21T01:23:38.426Z,157.22
2019-01-21T01:26:18.490Z,148.00
2019-01-21T01:28:58.744Z,154.42
2019-01-21T01:31:38.674Z,153.93
2019-01-21T01:34:17.963Z,148.25
2019-01-21T01:36:58.011Z,162.18
2019-01-21T01:39:38.067Z,154.18
2019-01-21T01:42:18.029Z,155.87
2019-01-21T01:44:58.225Z,145.12
2019-01-21T01:47:44.668Z,148.07
2019-01-21T01:50:20.449Z,164.43
2019-01-21T01:53:00.351Z,143.20
2019-01-21T01:55:40.388Z,143.80
2019-01-21T01:58:20.482Z,147.70
2019-01-21T02:01:00.667Z,150.05
2019-01-21T02:03:40.505Z,152.70
2019-01-21T02:06:20.670Z,153.45
2019-01-21T02:09:00.853Z,148.20
2019-01-21T02:11:40.805Z,149.32
2019-01-21T02:14:20.837Z,142.13
2019-01-21T02:16:58.243Z,144.37
2019-01-21T02:19:56.943Z,142.45
2019-01-21T02:26:11.442Z,156.40
2019-01-21T02:28:51.343Z,152.65
2019-01-21T02:31:31.666Z,161.45
2019-01-21T02:34:11.822Z,155.30
2019-01-21T02:36:51.735Z,149.38
2019-01-21T02:39:31.866Z,151.47
2019-01-21T02:42:11.931Z,154.50
2019-01-21T02:44:51.820Z,172.87
2019-01-21T02:47:32.349Z,141.10
2019-01-21T02:50:12.032Z,177.32
2019-01-21T02:52:52.093Z,157.18
2019-01-21T02:55:32.478Z,150.30
2019-01-21T02:58:12.248Z,149.40
2019-01-21T03:00:52.212Z,144.40
2019-01-21T03:03:32.504Z,152.38
2019-01-21T03:06:12.549Z,144.65
2019-01-21T03:08:52.690Z,150.78
2019-01-21T03:11:31.865Z,161.20
2019-01-21T03:14:11.932Z,152.12
2019-01-21T03:16:51.823Z,140.73
2019-01-21T03:19:31.765Z,144.62
2019-01-21T03:22:12.075Z,145.95
2019-01-21T03:24:51.851Z,156.18
2019-01-21T03:27:31.929Z,145.17
2019-01-21T03:30:12.106Z,148.70
2019-01-21T03:32:52.286Z,151.87
2019-01-21T03:35:31.618Z,144.13
2019-01-21T03:38:11.732Z,148.78
2019-01-21T03:40:51.056Z,145.82
2019-01-21T03:43:31.403Z,140.10
2019-01-21T03:46:11.331Z,144.93
2019-01-21T03:48:50.969Z,142.75
2019-01-21T03:51:30.963Z,144.68
2019-01-21T03:54:10.919Z,140.00
2019-01-21T03:56:50.942Z,144.53
2019-01-21T03:59:30.981Z,151.45
2019-01-21T04:02:11.091Z,144.13
2019-01-21T04:04:51.137Z,151.02
2019-01-21T04:07:31.531Z,143.57
2019-01-21T04:10:11.346Z,142.43
2019-01-21T04:12:51.511Z,135.37
2019-01-21T04:15:31.584Z,138.37
2019-01-21T04:18:11.675Z,149.50
2019-01-21T04:20:51.726Z,139.25
2019-01-21T04:23:31.928Z,141.53
2019-01-21T04:26:12.074Z,145.43
2019-01-21T04:28:52.149Z,139.55
2019-01-21T04:31:32.110Z,142.82
2019-01-21T04:34:12.297Z,144.40
2019-01-21T04:36:52.823Z,143.82
2019-01-21T04:39:32.519Z,141.62
2019-01-21T04:42:12.509Z,140.10
2019-01-21T04:44:51.829Z,135.15
2019-01-21T04:47:31.783Z,137.52
2019-01-21T04:50:12.187Z,138.12
2019-01-21T04:52:52.059Z,137.00
2019-01-21T04:55:31.562Z,136.65
2019-01-21T04:58:40.035Z,141.28
2019-01-21T05:01:46.162Z,137.43
2019-01-21T05:04:26.095Z,137.32
2019-01-21T05:07:06.196Z,136.80
2019-01-21T05:09:47.981Z,143.20
2019-01-21T05:12:27.369Z,137.35
2019-01-21T05:15:07.261Z,139.55
2019-01-21T05:17:47.300Z,144.40
2019-01-21T05:20:27.502Z,136.92
2019-01-21T05:23:08.546Z,131.87
2019-01-21T05:25:48.737Z,142.65
2019-01-21T05:28:28.874Z,142.87
2019-01-21T05:31:08.120Z,130.10
2019-01-21T05:33:47.451Z,135.52
2019-01-21T05:36:27.327Z,142.40
2019-01-21T05:39:07.441Z,132.25
2019-01-21T05:41:47.396Z,136.92
2019-01-21T05:44:27.433Z,141.45
2019-01-21T05:47:08.498Z,136.92
2019-01-21T05:49:48.554Z,145.53
2019-01-21T05:52:28.506Z,143.22
2019-01-21T05:55:08.490Z,140.00
2019-01-21T05:57:48.807Z,139.37
2019-01-21T06:00:28.585Z,131.32
2019-01-21T06:03:08.642Z,138.32
2019-01-21T06:05:48.937Z,134.37
2019-01-21T06:08:29.005Z,132.57
2019-01-21T06:11:08.786Z,130.00
2019-01-21T06:13:49.086Z,131.78
2019-01-21T06:16:28.936Z,131.97
2019-01-21T06:19:09.527Z,137.35
2019-01-21T06:21:48.855Z,133.22
2019-01-21T06:24:29.011Z,129.93
2019-01-21T06:27:09.081Z,139.75
2019-01-21T06:29:49.225Z,130.65
2019-01-21T06:32:29.495Z,134.65
2019-01-21T06:35:09.509Z,126.80
2019-01-21T06:37:49.418Z,126.97
2019-01-21T06:40:29.423Z,123.60
2019-01-21T06:43:09.362Z,125.92
2019-01-21T06:45:49.622Z,121.07
2019-01-21T06:48:29.496Z,129.72
2019-01-21T06:51:08.721Z,124.02
2019-01-21T06:53:48.543Z,128.72
2019-01-21T06:56:29.611Z,127.90
2019-01-21T06:59:10.527Z,124.97
2019-01-21T07:01:50.244Z,121.95
2019-01-21T07:04:29.880Z,121.57
2019-01-21T07:07:09.878Z,125.53
2019-01-21T07:09:50.181Z,122.15
2019-01-21T07:12:30.014Z,120.67
2019-01-21T07:15:10.152Z,121.67
2019-01-21T07:17:50.532Z,127.70
2019-01-21T07:20:30.535Z,128.18
2019-01-21T07:23:09.988Z,130.70
2019-01-21T07:25:50.059Z,125.85
2019-01-21T07:28:30.206Z,126.80
2019-01-21T07:31:09.801Z,128.23
2019-01-21T07:33:52.138Z,119.05
2019-01-21T07:37:00.172Z,124.65
2019-01-21T07:39:40.130Z,120.20
2019-01-21T07:42:20.167Z,122.85
2019-01-21T07:45:00.284Z,125.60
2019-01-21T07:47:40.493Z,119.50
2019-01-21T07:50:20.253Z,122.95
2019-01-21T07:53:00.301Z,124.55
2019-01-21T07:55:40.366Z,122.17
2019-01-21T07:58:20.594Z,129.27
2019-01-21T08:01:00.734Z,124.53
2019-01-21T08:03:40.895Z,121.92
2019-01-21T08:06:20.964Z,125.35
2019-01-21T08:09:00.224Z,127.12
2019-01-21T08:11:40.341Z,125.90
2019-01-21T08:14:20.453Z,128.25
2019-01-21T08:17:00.515Z,126.65
2019-01-21T08:19:40.683Z,128.85
2019-01-21T08:22:20.663Z,127.95
2019-01-21T08:25:00.882Z,124.95
2019-01-21T08:27:41.139Z,126.47
2019-01-21T08:30:21.138Z,132.52
2019-01-21T08:33:01.263Z,128.53
2019-01-21T08:35:41.774Z,131.07
2019-01-21T08:38:21.515Z,130.50
2019-01-21T08:41:01.848Z,130.63
2019-01-21T08:43:41.902Z,129.95
2019-01-21T08:46:24.205Z,132.60
2019-01-21T08:49:03.822Z,134.75
2019-01-21T08:51:44.312Z,128.82
2019-01-21T08:54:24.516Z,128.35
2019-01-21T08:57:04.566Z,138.47
2019-01-21T08:59:44.552Z,132.52
2019-01-21T09:02:24.720Z,141.18
2019-01-21T09:05:04.666Z,148.15
2019-01-21T09:07:44.756Z,137.25
2019-01-21T09:10:24.917Z,134.67
2019-01-21T09:13:04.920Z,138.92
2019-01-21T09:15:45.048Z,131.60
2019-01-21T09:18:25.063Z,133.45
2019-01-21T09:21:05.031Z,135.00
2019-01-21T09:23:45.396Z,135.12
2019-01-21T09:26:25.538Z,139.47
2019-01-21T09:29:05.652Z,138.55
2019-01-21T09:31:45.336Z,155.55
2019-01-21T09:34:25.447Z,137.00
2019-01-21T09:37:05.836Z,134.72
2019-01-21T09:39:45.974Z,139.20
2019-01-21T09:42:25.992Z,132.32
2019-01-21T09:45:05.830Z,134.47
2019-01-21T09:47:45.916Z,138.28
2019-01-21T09:50:26.104Z,131.35
2019-01-21T09:53:06.067Z,137.82
2019-01-21T09:55:46.304Z,140.92
2019-01-21T09:58:27.675Z,149.20
2019-01-21T10:01:08.753Z,147.32
2019-01-21T10:03:48.884Z,134.18
2019-01-21T10:06:29.219Z,143.60
2019-01-21T10:09:09.095Z,146.13
2019-01-21T10:11:49.156Z,146.68
2019-01-21T10:14:29.048Z,138.05
2019-01-21T10:17:09.300Z,152.38
2019-01-21T10:19:50.791Z,136.77
2019-01-21T10:22:30.535Z,151.27
2019-01-21T10:25:10.613Z,140.80
2019-01-21T10:27:50.746Z,141.18
2019-01-21T10:30:30.959Z,142.45
2019-01-21T10:33:10.786Z,137.15
2019-01-21T10:35:51.667Z,142.03
2019-01-21T10:38:31.908Z,131.87
2019-01-21T10:41:11.769Z,132.30
2019-01-21T10:43:51.084Z,140.62
2019-01-21T10:46:31.217Z,138.37
2019-01-21T10:49:11.346Z,136.10
2019-01-21T10:51:51.241Z,130.97
2019-01-21T10:54:31.322Z,135.05
2019-01-21T10:57:11.531Z,144.50
2019-01-21T10:59:51.628Z,131.60
2019-01-21T11:02:32.754Z,139.07
2019-01-21T11:05:12.969Z,136.97
2019-01-21T11:07:52.829Z,137.68
2019-01-21T11:10:32.674Z,137.32
2019-01-21T11:13:13.721Z,136.65
2019-01-21T11:15:53.958Z,140.73
2019-01-21T11:18:34.047Z,135.60
2019-01-21T11:21:14.101Z,133.25
2019-01-21T11:23:54.174Z,136.95
2019-01-21T11:26:34.201Z,129.93
2019-01-21T11:29:14.091Z,136.53
2019-01-21T11:31:54.270Z,132.30
2019-01-21T11:34:34.162Z,133.72
2019-01-21T11:37:14.265Z,130.80
2019-01-21T11:39:54.423Z,128.95
2019-01-21T11:42:34.533Z,127.27
2019-01-21T11:45:18.583Z,129.60
2019-01-21T11:47:56.353Z,121.87
2019-01-21T11:50:37.430Z,125.60
2019-01-21T11:53:17.285Z,129.23
2019-01-21T11:55:57.165Z,129.25
2019-01-21T11:58:36.771Z,125.30
2019-01-21T12:01:16.326Z,130.93
2019-01-21T12:03:56.375Z,124.80
2019-01-21T12:06:36.412Z,129.63
2019-01-21T12:09:16.525Z,127.37
2019-01-21T12:11:56.961Z,131.87
2019-01-21T12:14:36.708Z,129.37
2019-01-21T12:17:16.754Z,133.87
2019-01-21T12:19:56.743Z,127.00
2019-01-21T12:22:36.787Z,131.32
2019-01-21T12:25:17.190Z,127.13
2019-01-21T12:27:56.851Z,124.70
2019-01-21T12:30:36.928Z,124.00
2019-01-21T12:33:17.070Z,128.27
2019-01-21T12:35:57.180Z,130.90
2019-01-21T12:38:36.744Z,132.50
2019-01-21T12:41:21.606Z,127.67
2019-01-21T12:43:58.251Z,125.40
2019-01-21T12:46:39.443Z,127.73
2019-01-21T12:49:20.694Z,135.63
2019-01-21T12:52:00.413Z,124.83
2019-01-21T12:54:40.305Z,124.97
2019-01-21T12:57:20.568Z,124.60
2019-01-21T13:00:00.597Z,123.57
2019-01-21T13:02:40.757Z,129.57
2019-01-21T13:05:20.616Z,133.57
2019-01-21T13:08:00.717Z,134.40
2019-01-21T13:10:40.663Z,129.63
2019-01-21T13:13:20.656Z,150.47
2019-01-21T13:16:00.568Z,123.07
2019-01-21T13:18:40.583Z,138.63
2019-01-21T13:21:20.743Z,125.07
2019-01-21T13:24:00.979Z,121.37
2019-01-21T13:26:41.044Z,128.53
2019-01-21T13:29:21.301Z,128.17
2019-01-21T13:32:01.087Z,126.20
2019-01-21T13:34:41.088Z,126.17
2019-01-21T13:37:20.366Z,123.47
2019-01-21T13:40:26.508Z,120.93
2019-01-21T13:43:06.250Z,121.23
2019-01-21T13:45:45.671Z,122.27
2019-01-21T13:48:26.021Z,116.23
2019-01-21T13:51:05.677Z,120.67
2019-01-21T13:53:45.839Z,122.13
2019-01-21T13:56:26.985Z,120.80
2019-01-21T13:59:07.066Z,124.17
2019-01-21T14:01:47.150Z,118.67
2019-01-21T14:04:27.313Z,122.43
2019-01-21T14:07:07.438Z,120.60
2019-01-21T14:09:47.383Z,120.27
2019-01-21T14:12:27.434Z,118.90
2019-01-21T14:15:07.500Z,120.70
2019-01-21T14:17:47.476Z,119.57
2019-01-21T14:20:27.337Z,117.30
2019-01-21T14:23:07.468Z,117.80
2019-01-21T14:25:47.526Z,115.30
2019-01-21T14:28:27.800Z,121.30
2019-01-21T14:31:07.899Z,117.73
2019-01-21T14:33:47.870Z,116.27
2019-01-21T14:36:28.117Z,118.70
2019-01-21T14:39:08.041Z,118.67
2019-01-21T14:41:47.954Z,119.33
2019-01-21T14:44:28.153Z,117.40
2019-01-21T14:47:08.207Z,124.83
2019-01-21T14:49:48.321Z,123.20
2019-01-21T14:52:28.315Z,124.37
2019-01-21T14:55:08.526Z,125.00
2019-01-21T14:57:48.520Z,117.27
2019-01-21T15:00:28.543Z,119.47
2019-01-21T15:03:08.519Z,117.70
2019-01-21T15:05:48.749Z,114.60
2019-01-21T15:08:28.592Z,116.97
2019-01-21T15:11:08.745Z,115.60
2019-01-21T15:13:48.854Z,117.60
2019-01-21T15:16:28.728Z,114.47
2019-01-21T15:19:08.585Z,116.00
2019-01-21T15:21:48.788Z,117.77
2019-01-21T15:24:28.849Z,119.50
2019-01-21T15:27:09.030Z,114.83
2019-01-21T15:29:49.138Z,114.63
2019-01-21T15:32:28.339Z,119.00
2019-01-21T15:35:08.354Z,117.07
2019-01-21T15:37:48.448Z,119.73
2019-01-21T15:40:28.895Z,117.37
2019-01-21T15:43:08.811Z,115.20
2019-01-21T15:45:51.752Z,120.73
2019-01-21T15:48:31.645Z,118.07
2019-01-21T15:51:11.686Z,117.67
2019-01-21T15:53:52.048Z,117.03
2019-01-21T15:56:31.791Z,119.90
2019-01-21T15:59:12.076Z,126.60
2019-01-21T16:01:51.916Z,116.40
2019-01-21T16:04:31.878Z,114.23
2019-01-21T16:07:11.120Z,121.40
2019-01-21T16:09:51.412Z,124.17
2019-01-21T16:12:31.328Z,122.00
2019-01-21T16:15:11.401Z,125.00
2019-01-21T16:17:51.509Z,119.07
2019-01-21T16:20:31.831Z,148.50
2019-01-21T16:23:11.740Z,150.27
2019-01-21T16:25:52.166Z,130.03
2019-01-21T16:28:32.011Z,126.07
2019-01-21T16:31:12.218Z,120.47
2019-01-21T16:33:53.455Z,125.63
2019-01-21T16:36:59.970Z,122.30
2019-01-21T16:43:13.592Z,125.57
2019-01-21T16:45:54.022Z,129.30
2019-01-21T16:48:33.788Z,126.10
2019-01-21T16:51:20.426Z,125.97
2019-01-21T16:53:57.772Z,144.17
2019-01-21T16:56:37.780Z,201.12
2019-01-21T16:59:18.077Z,176.33
2019-01-21T17:01:57.961Z,147.10
2019-01-21T17:04:38.284Z,140.65
2019-01-21T17:07:18.451Z,139.23
2019-01-21T17:09:58.343Z,122.30
2019-01-21T17:12:38.222Z,134.60
2019-01-21T17:15:18.099Z,124.60
2019-01-21T17:17:58.249Z,120.50
2019-01-21T17:20:38.263Z,124.13
2019-01-21T17:23:18.504Z,119.07
2019-01-21T17:25:58.685Z,121.33
2019-01-21T17:28:38.605Z,122.63
2019-01-21T17:31:18.701Z,118.77
2019-01-21T17:33:58.681Z,126.03
2019-01-21T17:36:38.343Z,116.82
2019-01-21T17:39:18.546Z,119.47
2019-01-21T17:41:58.635Z,118.00
2019-01-21T17:44:38.695Z,121.27
2019-01-21T17:47:18.829Z,124.57
2019-01-21T17:49:59.643Z,121.07
2019-01-21T17:52:39.591Z,129.83
2019-01-21T17:55:19.679Z,126.33
2019-01-21T17:57:59.627Z,124.80
2019-01-21T18:00:39.594Z,125.62
2019-01-21T18:03:19.493Z,123.17
2019-01-21T18:05:59.585Z,126.67
2019-01-21T18:08:39.670Z,121.20
2019-01-21T18:11:19.906Z,124.17
2019-01-21T18:14:00.255Z,122.28
2019-01-21T18:16:40.122Z,122.60
2019-01-21T18:19:20.203Z,121.53
2019-01-21T18:22:00.129Z,121.28
2019-01-21T18:24:40.311Z,123.72
2019-01-21T18:27:20.535Z,119.47
2019-01-21T18:30:02.011Z,121.00
2019-01-21T18:32:43.328Z,122.85
2019-01-21T18:35:22.677Z,124.33
2019-01-21T18:38:03.106Z,125.60
2019-01-21T18:40:42.965Z,122.20
2019-01-21T18:43:23.226Z,122.13
2019-01-21T18:46:03.068Z,126.50
2019-01-21T18:48:42.633Z,126.63
2019-01-21T18:51:22.363Z,133.17
2019-01-21T18:54:01.987Z,121.43
2019-01-21T18:56:42.107Z,123.70
2019-01-21T18:59:22.048Z,123.97
2019-01-21T19:02:01.585Z,121.10
2019-01-21T19:04:41.582Z,124.13
2019-01-21T19:07:22.823Z,121.93
2019-01-21T19:10:03.144Z,121.97
2019-01-21T19:12:44.871Z,128.40
2019-01-21T19:15:25.857Z,121.10
2019-01-21T19:18:05.422Z,122.97
2019-01-21T19:20:45.247Z,119.80
2019-01-21T19:23:25.464Z,130.43
2019-01-21T19:26:05.949Z,123.57
2019-01-21T19:28:45.723Z,123.82
2019-01-21T19:31:25.688Z,122.37
2019-01-21T19:34:05.744Z,122.37
2019-01-21T19:36:45.715Z,127.80
2019-01-21T19:39:26.445Z,123.07
2019-01-21T19:42:05.943Z,126.27
2019-01-21T19:44:45.713Z,138.70
2019-01-21T19:47:25.692Z,125.07
2019-01-21T19:50:05.864Z,130.77
2019-01-21T19:52:46.018Z,128.17
2019-01-21T19:55:26.266Z,124.23
2019-01-21T19:58:06.007Z,129.73
2019-01-21T20:00:46.121Z,124.93
2019-01-21T20:03:26.089Z,122.37
2019-01-21T20:06:06.297Z,123.97
2019-01-21T20:08:46.342Z,125.50
2019-01-21T20:11:26.499Z,125.70
2019-01-21T20:14:06.260Z,126.40
2019-01-21T20:16:46.111Z,127.17
2019-01-21T20:19:25.682Z,131.00
2019-01-21T20:22:07.949Z,121.70
2019-01-21T20:24:47.431Z,131.67
2019-01-21T20:27:27.505Z,127.87
2019-01-21T20:30:07.455Z,128.37
2019-01-21T20:32:47.535Z,120.77
2019-01-21T20:35:27.628Z,129.50
2019-01-21T20:38:07.759Z,128.13
2019-01-21T20:40:48.052Z,120.67
2019-01-21T20:43:28.460Z,122.93
2019-01-21T20:46:08.395Z,119.13
2019-01-21T20:48:48.477Z,126.53
2019-01-21T20:51:28.358Z,131.70
2019-01-21T20:54:08.520Z,127.97
2019-01-21T20:56:49.892Z,123.47
2019-01-21T20:59:29.566Z,129.30
2019-01-21T21:02:09.650Z,124.70
2019-01-21T21:04:48.980Z,131.17
2019-01-21T21:07:29.001Z,134.37
2019-01-21T21:10:09.145Z,141.20
2019-01-21T21:12:49.394Z,123.43
2019-01-21T21:15:32.783Z,128.27
2019-01-21T21:18:13.274Z,126.93
2019-01-21T21:20:53.347Z,134.30
2019-01-21T21:23:32.988Z,130.40
2019-01-21T21:26:13.248Z,128.80
2019-01-21T21:28:53.073Z,123.50
2019-01-21T21:31:32.811Z,123.33
2019-01-21T21:34:12.744Z,129.10
2019-01-21T21:36:53.178Z,127.03
2019-01-21T21:39:32.855Z,123.87
2019-01-21T21:42:13.071Z,123.47
2019-01-21T21:44:53.008Z,124.07
2019-01-21T21:47:33.145Z,123.60
2019-01-21T21:50:13.016Z,126.40
2019-01-21T21:52:53.043Z,122.10
2019-01-21T21:55:33.312Z,129.50
2019-01-21T21:58:13.442Z,123.57
2019-01-21T22:00:53.548Z,128.80
2019-01-21T22:03:33.784Z,129.13
2019-01-21T22:06:13.890Z,127.87
2019-01-21T22:08:54.018Z,126.00
2019-01-21T22:11:34.061Z,129.10
2019-01-21T22:14:15.327Z,129.17
2019-01-21T22:16:55.780Z,126.73
2019-01-21T22:19:35.629Z,130.87
2019-01-21T22:22:19.932Z,129.07
2019-01-21T22:25:02.130Z,126.50
2019-01-21T22:27:41.949Z,132.37
2019-01-21T22:30:21.953Z,121.80
2019-01-21T22:33:01.922Z,123.87
2019-01-21T22:35:41.912Z,131.50
2019-01-21T22:38:21.924Z,124.57
2019-01-21T22:41:01.951Z,124.60
2019-01-21T22:43:42.040Z,127.43
2019-01-21T22:46:22.421Z,128.27
2019-01-21T22:49:02.535Z,126.57
2019-01-21T22:51:41.774Z,123.43
2019-01-21T22:54:21.620Z,125.47
2019-01-21T22:57:01.544Z,127.72
2019-01-21T22:59:41.814Z,126.55
2019-01-21T23:02:21.558Z,130.67
2019-01-21T23:05:01.735Z,123.60
2019-01-21T23:07:41.768Z,125.47
2019-01-21T23:10:22.138Z,120.80
2019-01-21T23:13:01.762Z,122.60
2019-01-21T23:15:41.704Z,125.67
2019-01-21T23:18:21.573Z,125.83
2019-01-21T23:21:01.915Z,126.90
2019-01-21T23:23:41.474Z,122.80
2019-01-21T23:26:22.566Z,121.77
2019-01-21T23:29:02.674Z,127.00
2019-01-21T23:31:43.851Z,125.57
2019-01-21T23:34:23.914Z,123.63
2019-01-21T23:37:04.015Z,130.50
2019-01-21T23:39:44.125Z,121.33
2019-01-21T23:42:24.561Z,124.20
2019-01-21T23:45:04.407Z,125.47
2019-01-21T23:47:44.296Z,124.60
2019-01-21T23:50:24.007Z,126.87
2019-01-21T23:53:03.673Z,124.17
2019-01-21T23:55:43.793Z,124.20
2019-01-21T23:58:23.866Z,124.17
